Haslam, Texas
Current Conditions -  °F | °C
As of 7:56 PM on Friday 28 Nov 2014 (Local Time) from KSHV Reporting Station
Few Clouds Few Clouds  
Wind Chill: 56°   Ceiling: Unl
Heat Index: 56°   Visibility: 10mi
Dew Point: 48°   Wind: 9mph
Humidity: 75%   Direction: 170°S
Pressure: 30.11"   Gusts: NA
Location:  31.9194°N, 94.0667°W
Report Text: KSHV 290156Z 17008KT 10SM FEW280 13/09 A3011 RMK AO2 SLP197 T01330089
Loading
Personal Weather Stations






























Interactive Weather Map New forecast layout! Learn more

10-Day Weather Forecast

Advertisements
Track Severe Weather on mobile